Time;durP1;ratioP1;P1;durP2;ratioP2;P2;SDS_P1;SDS_P2;PMS_P1;PMS_P2;Temp;Humidity;BMP_temperature;BMP_pressure;BME280_temperature;BME280_humidity;BME280_pressure;Samples;Min_cycle;Max_cycle;Signal;HPM_P1;HPM_P2
2022/10/20 00:02:11;;;;;;;9.82;3.35;;;;;;;5.30;100.00;101712.69;4898632;29;20103;-74
2022/10/20 00:04:37;;;;;;;4.13;3.03;;;;;;;5.25;100.00;101709.06;4910006;29;20066;-75
2022/10/20 00:07:04;;;;;;;6.82;3.00;;;;;;;5.21;100.00;101705.50;4899378;29;20483;-74
2022/10/20 00:09:30;;;;;;;5.65;3.63;;;;;;;5.17;100.00;101708.84;4904502;29;20503;-75
2022/10/20 00:11:56;;;;;;;6.95;3.60;;;;;;;5.13;100.00;101694.88;4903750;29;20495;-77
2022/10/20 00:14:23;;;;;;;4.10;3.03;;;;;;;5.11;100.00;101688.78;4911558;29;20055;-76
2022/10/20 00:16:49;;;;;;;4.25;3.67;;;;;;;5.06;100.00;101690.34;4887517;29;20538;-76
2022/10/20 00:19:16;;;;;;;10.23;3.97;;;;;;;5.03;100.00;101695.47;4912967;29;20091;-76
2022/10/20 00:21:42;;;;;;;11.32;4.45;;;;;;;5.04;100.00;101681.63;4913183;29;20780;-75
2022/10/20 00:24:09;;;;;;;6.47;3.65;;;;;;;5.04;100.00;101672.97;4891549;29;20144;-74
2022/10/20 00:26:35;;;;;;;4.68;3.85;;;;;;;5.00;100.00;101665.94;4898192;29;20044;-78
2022/10/20 00:29:03;;;;;;;13.02;3.80;;;;;;;4.97;100.00;101662.41;4909940;29;20086;-75
2022/10/20 00:31:30;;;;;;;7.25;3.97;;;;;;;4.96;100.00;101659.75;4892182;29;20036;-75
2022/10/20 00:33:57;;;;;;;6.95;4.13;;;;;;;4.94;100.00;101659.72;4896667;29;20403;-79
2022/10/20 00:36:24;;;;;;;5.03;3.40;;;;;;;4.94;100.00;101657.13;4897365;29;20055;-74
2022/10/20 00:38:51;;;;;;;4.22;3.42;;;;;;;4.94;100.00;101651.03;4896874;29;20367;-75
2022/10/20 00:41:20;;;;;;;5.85;4.00;;;;;;;4.92;100.00;101655.31;4904597;29;20048;-78
2022/10/20 00:44:01;;;;;;;7.78;3.78;;;;;;;4.93;100.00;101647.56;4904551;29;20415;-75
2022/10/20 00:46:40;;;;;;;5.50;3.70;;;;;;;4.88;100.00;101649.16;4911836;29;20046;-75
2022/10/20 00:49:16;;;;;;;8.35;4.28;;;;;;;4.85;100.00;101643.88;4911190;29;20040;-76
2022/10/20 00:51:46;;;;;;;8.55;3.83;;;;;;;4.85;100.00;101641.28;4891757;29;20048;-77
2022/10/20 00:54:18;;;;;;;5.63;3.22;;;;;;;4.80;100.00;101635.06;4907700;29;20051;-76
2022/10/20 00:56:48;;;;;;;8.18;3.40;;;;;;;4.76;100.00;101643.59;4897740;29;20062;-77
2022/10/20 00:59:19;;;;;;;8.93;4.22;;;;;;;4.71;100.00;101647.75;4893745;29;20131;-75
2022/10/20 01:01:46;;;;;;;8.23;3.85;;;;;;;4.67;100.00;101644.19;4891827;29;20503;-74
2022/10/20 01:04:13;;;;;;;5.68;3.65;;;;;;;4.71;100.00;101635.66;4903386;29;20131;-75
2022/10/20 01:06:39;;;;;;;7.63;3.88;;;;;;;4.68;100.00;101629.50;4877075;29;20048;-75
2022/10/20 01:09:07;;;;;;;6.28;4.15;;;;;;;4.64;100.00;101625.91;4906216;29;20062;-74
2022/10/20 01:12:22;;;;;;;6.00;3.63;;;;;;;4.59;100.00;101619.75;4879067;29;20040;-75
2022/10/20 01:15:03;;;;;;;4.50;3.35;;;;;;;4.54;100.00;101616.97;4897644;29;20055;-76
2022/10/20 01:18:07;;;;;;;4.43;3.42;;;;;;;4.52;100.00;101607.41;4903907;29;20052;-76
2022/10/20 01:21:05;;;;;;;5.57;3.95;;;;;;;4.45;100.00;101607.19;4908226;29;20051;-76
2022/10/20 01:23:44;;;;;;;7.93;3.78;;;;;;;4.42;100.00;101604.53;4913256;29;20048;-77
2022/10/20 01:26:14;;;;;;;9.93;4.05;;;;;;;4.44;100.00;101608.03;4914378;29;20067;-80
2022/10/20 01:28:57;;;;;;;5.78;3.72;;;;;;;4.43;100.00;101607.97;4915361;29;20048;-75
2022/10/20 01:32:10;;;;;;;7.20;3.63;;;;;;;4.42;100.00;101601.03;4894178;29;20053;-76
2022/10/20 01:35:34;;;;;;;5.35;3.63;;;;;;;4.39;100.00;101598.34;4891459;29;20047;-76
2022/10/20 01:38:22;;;;;;;5.10;3.95;;;;;;;4.33;100.00;101592.97;4870972;29;20053;-79
2022/10/20 01:40:54;;;;;;;6.13;3.47;;;;;;;4.35;100.00;101599.09;4860526;29;20056;-74
2022/10/20 01:43:23;;;;;;;6.57;4.10;;;;;;;4.34;100.00;101593.03;4889871;29;20056;-76
2022/10/20 01:45:52;;;;;;;8.48;3.25;;;;;;;4.30;100.00;101585.97;4880396;29;20765;-75
2022/10/20 01:48:23;;;;;;;5.93;3.90;;;;;;;4.29;100.00;101584.22;4895286;29;20059;-74
2022/10/20 01:50:50;;;;;;;5.00;3.70;;;;;;;4.30;100.00;101578.19;4901045;29;20123;-73
2022/10/20 01:53:17;;;;;;;5.90;3.85;;;;;;;4.31;100.00;101585.16;4911003;29;20056;-77
2022/10/20 01:55:43;;;;;;;6.45;4.38;;;;;;;4.30;100.00;101581.69;4889173;29;20064;-76
2022/10/20 01:58:28;;;;;;;5.97;4.45;;;;;;;4.33;100.00;101578.31;4911305;29;20131;-75
2022/10/20 02:01:24;;;;;;;7.00;4.13;;;;;;;4.28;100.00;101570.38;4913460;29;20397;-75
2022/10/20 02:03:58;;;;;;;4.25;3.83;;;;;;;4.25;100.00;101562.50;4899881;29;20074;-77
2022/10/20 02:06:35;;;;;;;4.78;4.22;;;;;;;4.22;100.00;101561.53;4915108;29;20079;-76
2022/10/20 02:09:07;;;;;;;5.88;3.92;;;;;;;4.21;100.00;101562.34;4915772;29;20055;-78
2022/10/20 02:11:39;;;;;;;5.28;4.18;;;;;;;4.14;100.00;101562.16;4900430;29;20036;-75
2022/10/20 02:14:10;;;;;;;7.88;4.45;;;;;;;4.12;100.00;101560.38;4905592;29;20040;-75
2022/10/20 02:16:47;;;;;;;7.43;5.22;;;;;;;4.08;100.00;101561.97;4898904;29;20111;-75
2022/10/20 02:19:17;;;;;;;8.20;5.18;;;;;;;4.03;100.00;101557.47;4899841;29;20052;-76
2022/10/20 02:21:44;;;;;;;12.60;6.05;;;;;;;4.02;100.00;101550.53;4916621;29;20076;-77
2022/10/20 02:24:16;;;;;;;10.00;6.80;;;;;;;4.01;100.00;101541.00;4891926;29;20130;-75
2022/10/20 02:26:44;;;;;;;11.02;7.78;;;;;;;3.99;100.00;101543.53;4899547;29;20071;-80
2022/10/20 02:29:16;;;;;;;10.70;8.68;;;;;;;3.98;100.00;101547.81;4906189;29;20039;-75
2022/10/20 02:31:44;;;;;;;10.00;7.45;;;;;;;4.00;100.00;101542.69;4885419;29;20143;-75
2022/10/20 02:34:12;;;;;;;13.98;8.10;;;;;;;3.99;100.00;101525.41;4910818;29;20059;-75
2022/10/20 02:36:42;;;;;;;15.00;9.95;;;;;;;3.99;100.00;101522.81;4894601;29;20674;-77
2022/10/20 02:39:10;;;;;;;12.23;7.45;;;;;;;4.01;100.00;101521.13;4895380;29;20051;-75
2022/10/20 02:41:37;;;;;;;9.77;6.53;;;;;;;4.04;100.00;101513.47;4916539;29;20044;-76
2022/10/20 02:44:04;;;;;;;10.18;6.35;;;;;;;4.04;100.00;101526.44;4913862;29;20036;-75
2022/10/20 02:46:30;;;;;;;9.10;6.25;;;;;;;4.05;100.00;101511.75;4910427;29;20559;-77
2022/10/20 02:48:57;;;;;;;9.00;5.25;;;;;;;4.03;100.00;101503.94;4916756;29;20060;-75
2022/10/20 02:51:23;;;;;;;6.70;4.72;;;;;;;4.05;100.00;101504.00;4899625;29;20051;-75
2022/10/20 02:53:50;;;;;;;6.22;4.38;;;;;;;4.06;100.00;101503.16;4913281;29;20044;-74
2022/10/20 02:56:16;;;;;;;6.63;3.97;;;;;;;4.05;100.00;101497.09;4913966;29;20050;-75
2022/10/20 02:58:43;;;;;;;7.55;4.15;;;;;;;4.07;100.00;101495.44;4901655;29;20058;-76
2022/10/20 03:01:09;;;;;;;11.50;5.13;;;;;;;4.11;100.00;101491.22;4899105;29;20082;-75
2022/10/20 03:03:36;;;;;;;4.20;3.72;;;;;;;4.18;100.00;101494.88;4904932;29;20048;-75
2022/10/20 03:06:11;;;;;;;6.25;3.35;;;;;;;4.13;100.00;101489.53;4916252;29;20555;-75
2022/10/20 03:08:38;;;;;;;3.80;3.40;;;;;;;4.09;100.00;101491.19;4901487;29;20047;-75
2022/10/20 03:11:05;;;;;;;6.07;3.85;;;;;;;4.15;100.00;101493.09;4886318;29;20056;-77
2022/10/20 03:13:31;;;;;;;9.18;3.65;;;;;;;4.15;100.00;101498.25;4914082;29;20132;-77
2022/10/20 03:15:58;;;;;;;3.63;3.33;;;;;;;4.16;100.00;101489.66;4896937;29;20059;-75
2022/10/20 03:18:25;;;;;;;7.40;4.15;;;;;;;4.18;100.00;101492.28;4911208;29;20406;-77
2022/10/20 03:20:52;;;;;;;5.28;3.72;;;;;;;4.13;100.00;101487.84;4901744;29;20143;-75
2022/10/20 03:23:19;;;;;;;4.72;3.72;;;;;;;4.09;100.00;101478.25;4897530;29;21087;-74
2022/10/20 03:25:46;;;;;;;6.63;3.95;;;;;;;4.07;100.00;101476.44;4896416;29;20044;-75
2022/10/20 03:28:13;;;;;;;9.75;3.75;;;;;;;4.12;100.00;101467.94;4916185;29;20118;-75
2022/10/20 03:30:40;;;;;;;4.93;3.42;;;;;;;4.17;100.00;101459.44;4916004;29;20557;-75
2022/10/20 03:33:06;;;;;;;4.32;3.67;;;;;;;4.17;100.00;101462.03;4915039;29;20067;-74
2022/10/20 03:35:33;;;;;;;3.78;2.92;;;;;;;4.11;100.00;101475.69;4906675;29;20104;-76
2022/10/20 03:37:59;;;;;;;7.88;4.40;;;;;;;4.14;100.00;101473.19;4910958;29;20087;-78
2022/10/20 03:40:26;;;;;;;4.75;3.22;;;;;;;4.12;100.00;101469.69;4893683;29;20040;-81
2022/10/20 03:42:52;;;;;;;3.03;2.80;;;;;;;4.08;100.00;101462.63;4894461;29;20704;-78
2022/10/20 03:45:19;;;;;;;6.93;4.03;;;;;;;4.03;100.00;101457.31;4913754;29;20043;-77
2022/10/20 03:47:45;;;;;;;3.65;3.35;;;;;;;4.03;100.00;101466.78;4897332;29;20051;-77
2022/10/20 03:50:12;;;;;;;6.20;3.72;;;;;;;4.00;100.00;101472.75;4918194;29;20050;-76
2022/10/20 03:52:38;;;;;;;3.70;3.33;;;;;;;3.96;100.00;101461.44;4905930;29;20107;-76
2022/10/20 03:55:05;;;;;;;4.53;3.75;;;;;;;3.95;100.00;101457.06;4918992;29;20048;-76
2022/10/20 03:57:32;;;;;;;4.57;4.18;;;;;;;3.92;100.00;101456.94;4913062;29;20123;-76
2022/10/20 03:59:58;;;;;;;5.85;3.22;;;;;;;3.95;100.00;101448.41;4910451;29;20043;-75
2022/10/20 04:02:42;;;;;;;6.68;3.70;;;;;;;3.96;100.00;101450.16;4905903;29;20108;-79
2022/10/20 04:05:15;;;;;;;3.80;2.85;;;;;;;3.99;100.00;101447.69;4887273;29;20051;-77
2022/10/20 04:07:42;;;;;;;6.07;4.28;;;;;;;3.99;100.00;101447.69;4896554;29;20119;-78
2022/10/20 04:10:10;;;;;;;4.65;3.08;;;;;;;4.00;100.00;101444.25;4899864;29;20079;-76
2022/10/20 04:12:37;;;;;;;3.35;3.00;;;;;;;3.96;100.00;101430.34;4916173;29;20055;-76
2022/10/20 04:15:05;;;;;;;8.15;4.13;;;;;;;3.94;100.00;101424.22;4897774;29;20044;-82
2022/10/20 04:17:32;;;;;;;3.05;2.60;;;;;;;3.99;100.00;101421.78;4909348;29;20159;-77
2022/10/20 04:19:59;;;;;;;3.78;3.28;;;;;;;4.03;100.00;101422.72;4881233;29;20556;-80
2022/10/20 04:22:25;;;;;;;4.60;3.78;;;;;;;4.05;100.00;101410.72;4924516;29;20054;-76
2022/10/20 04:24:52;;;;;;;5.30;2.60;;;;;;;4.10;100.00;101407.41;4916099;29;20066;-75
2022/10/20 04:27:18;;;;;;;4.63;2.55;;;;;;;4.12;100.00;101400.59;4910199;29;20040;-77
2022/10/20 04:29:46;;;;;;;5.40;3.58;;;;;;;4.09;100.00;101397.91;4913239;29;20369;-78
2022/10/20 04:32:13;;;;;;;3.17;2.88;;;;;;;4.08;100.00;101392.66;4908811;29;20036;-76
2022/10/20 04:34:39;;;;;;;3.88;2.63;;;;;;;4.07;100.00;101383.16;4915752;29;20048;-79
2022/10/20 04:37:06;;;;;;;6.22;3.17;;;;;;;4.01;100.00;101382.97;4918255;29;20043;-76
2022/10/20 04:39:33;;;;;;;3.13;2.88;;;;;;;3.93;100.00;101375.81;4907321;29;20040;-76
2022/10/20 04:41:59;;;;;;;5.20;2.63;;;;;;;3.89;100.00;101373.13;4916371;29;20043;-76
2022/10/20 04:44:26;;;;;;;3.22;2.72;;;;;;;3.91;100.00;101374.03;4928600;29;20079;-76
2022/10/20 04:46:54;;;;;;;7.55;3.40;;;;;;;3.91;100.00;101376.63;4915936;29;20488;-77
2022/10/20 04:49:21;;;;;;;3.22;2.92;;;;;;;3.95;100.00;101369.00;4913588;29;20423;-75
2022/10/20 04:51:47;;;;;;;5.70;3.08;;;;;;;4.05;100.00;101370.13;4917210;29;20055;-76
2022/10/20 04:54:14;;;;;;;4.85;3.17;;;;;;;4.05;100.00;101374.44;4916998;29;20095;-75
2022/10/20 04:56:41;;;;;;;3.42;2.90;;;;;;;4.00;100.00;101374.28;4912193;29;20500;-75
2022/10/20 04:59:07;;;;;;;5.63;3.38;;;;;;;3.93;100.00;101364.59;4913587;29;20040;-76
2022/10/20 05:01:34;;;;;;;4.50;3.53;;;;;;;3.91;100.00;101363.66;4914530;29;20043;-79
2022/10/20 05:04:00;;;;;;;5.70;3.10;;;;;;;3.89;100.00;101354.97;4909746;29;20135;-77
2022/10/20 05:06:33;;;;;;;5.55;3.40;;;;;;;3.82;100.00;101348.75;4911172;29;20068;-76
2022/10/20 05:09:03;;;;;;;3.15;2.67;;;;;;;3.81;100.00;101345.25;4911288;29;20441;-77
2022/10/20 05:11:33;;;;;;;3.67;2.92;;;;;;;3.80;100.00;101337.44;4912502;29;20063;-78
2022/10/20 05:14:00;;;;;;;6.60;3.10;;;;;;;3.77;100.00;101345.13;4912287;29;20143;-77
2022/10/20 05:16:26;;;;;;;8.82;4.32;;;;;;;3.78;100.00;101340.00;4928459;29;20043;-76
2022/10/20 05:18:54;;;;;;;6.40;2.85;;;;;;;3.78;100.00;101341.69;4910303;29;20131;-78
2022/10/20 05:21:25;;;;;;;4.32;3.38;;;;;;;3.75;100.00;101337.31;4908315;29;20091;-77
2022/10/20 05:24:17;;;;;;;5.47;3.17;;;;;;;3.72;100.00;101331.19;4902016;29;20040;-77
2022/10/20 05:26:44;;;;;;;4.93;3.17;;;;;;;3.69;100.00;101333.66;4905173;29;20618;-77
2022/10/20 05:29:11;;;;;;;7.85;3.53;;;;;;;3.68;100.00;101339.66;4896040;29;20036;-77
2022/10/20 05:31:43;;;;;;;5.70;4.40;;;;;;;3.67;100.00;101335.34;4904904;29;20037;-76
2022/10/20 05:34:11;;;;;;;4.60;3.83;;;;;;;3.67;100.00;101333.59;4916449;29;20402;-76
2022/10/20 05:36:38;;;;;;;7.60;3.40;;;;;;;3.74;100.00;101325.22;4914970;29;20070;-78
2022/10/20 05:39:05;;;;;;;8.48;4.03;;;;;;;3.73;100.00;101331.22;4899097;29;20154;-78
2022/10/20 05:41:33;;;;;;;6.05;3.33;;;;;;;3.75;100.00;101324.34;4897292;29;20058;-76
2022/10/20 05:44:03;;;;;;;5.10;3.72;;;;;;;3.75;100.00;101326.94;4904921;29;20067;-78
2022/10/20 05:46:33;;;;;;;9.02;4.18;;;;;;;3.77;100.00;101322.69;4914584;29;20423;-77
2022/10/20 05:49:02;;;;;;;4.68;2.70;;;;;;;3.83;100.00;101305.59;4903303;29;20082;-75
2022/10/20 05:51:36;;;;;;;6.15;3.95;;;;;;;3.91;100.00;101310.16;4919549;29;20041;-77
2022/10/20 05:54:03;;;;;;;5.28;3.90;;;;;;;3.98;100.00;101316.41;4890328;29;20044;-77
2022/10/20 05:56:32;;;;;;;4.22;3.63;;;;;;;4.08;100.00;101321.00;4913285;29;20047;-78
2022/10/20 05:58:59;;;;;;;4.60;3.10;;;;;;;4.12;100.00;101329.75;4901408;29;20044;-77
2022/10/20 06:01:38;;;;;;;6.00;3.55;;;;;;;4.09;100.00;101325.38;4915837;29;20163;-75
2022/10/20 06:04:07;;;;;;;4.38;2.92;;;;;;;4.08;100.00;101327.88;4906849;29;20059;-77
2022/10/20 06:06:34;;;;;;;3.90;3.10;;;;;;;4.17;100.00;101320.38;4913854;29;20044;-75
2022/10/20 06:09:04;;;;;;;7.70;3.35;;;;;;;4.22;100.00;101318.78;4898293;29;20451;-77
2022/10/20 06:11:30;;;;;;;6.10;3.85;;;;;;;4.22;100.00;101312.72;4877156;29;20053;-75
2022/10/20 06:13:57;;;;;;;7.57;3.50;;;;;;;4.20;100.00;101304.91;4899757;29;20058;-79
2022/10/20 06:16:26;;;;;;;4.35;3.03;;;;;;;4.24;100.00;101306.75;4912825;29;20051;-77
2022/10/20 06:18:53;;;;;;;9.95;3.63;;;;;;;4.29;100.00;101304.31;4902057;29;20463;-75
2022/10/20 06:21:31;;;;;;;6.47;3.47;;;;;;;4.37;100.00;101320.03;4913685;29;20052;-76
2022/10/20 06:23:59;;;;;;;4.88;3.25;;;;;;;4.46;100.00;101312.53;4904996;29;20048;-74
2022/10/20 06:26:31;;;;;;;20.70;4.82;;;;;;;4.47;100.00;101309.97;4906043;29;20033;-77
2022/10/20 06:28:58;;;;;;;6.65;3.83;;;;;;;4.52;100.00;101317.00;4897981;29;20047;-76
2022/10/20 06:31:30;;;;;;;4.47;3.20;;;;;;;4.53;100.00;101311.84;4911642;29;20044;-77
2022/10/20 06:33:58;;;;;;;5.05;3.10;;;;;;;4.55;100.00;101315.38;4898468;29;20055;-76
2022/10/20 06:36:26;;;;;;;3.58;3.17;;;;;;;4.58;100.00;101320.63;4901981;29;20052;-77
2022/10/20 06:38:55;;;;;;;4.80;2.97;;;;;;;4.61;100.00;101314.63;4920258;29;20079;-78
2022/10/20 06:41:22;;;;;;;4.43;3.60;;;;;;;4.64;100.00;101320.78;4885566;29;20044;-80
2022/10/20 06:43:48;;;;;;;5.32;3.67;;;;;;;4.69;100.00;101318.31;4899111;29;20406;-75
2022/10/20 06:46:18;;;;;;;5.00;3.38;;;;;;;4.74;100.00;101310.66;4892153;29;20139;-77
2022/10/20 06:48:45;;;;;;;6.68;3.33;;;;;;;4.76;100.00;101309.84;4915810;29;20407;-75
2022/10/20 06:51:15;;;;;;;7.22;5.38;;;;;;;4.82;100.00;101297.88;4890618;29;20159;-78
2022/10/20 06:53:43;;;;;;;5.68;3.65;;;;;;;4.85;100.00;101303.13;4891408;29;20041;-75
2022/10/20 06:56:16;;;;;;;9.05;3.60;;;;;;;4.86;100.00;101302.31;4915813;29;20046;-79
2022/10/20 06:58:46;;;;;;;5.65;4.03;;;;;;;4.90;100.00;101310.22;4909172;29;20050;-78
2022/10/20 07:01:16;;;;;;;5.32;4.07;;;;;;;4.90;100.00;101297.25;4907899;29;20080;-77
2022/10/20 07:03:45;;;;;;;4.88;3.20;;;;;;;4.95;100.00;101293.03;4896712;29;20566;-79
2022/10/20 07:06:19;;;;;;;7.20;4.72;;;;;;;4.98;100.00;101279.25;4895606;29;20059;-76
2022/10/20 07:08:46;;;;;;;;;;;;;;;5.01;100.00;101288.84;4900292;29;20048;-76
2022/10/20 07:11:20;;;;;;;9.07;4.85;;;;;;;5.04;100.00;101281.13;4911750;29;20316;-76
2022/10/20 07:13:48;;;;;;;15.70;4.78;;;;;;;5.07;100.00;101282.06;4898636;29;20604;-77
2022/10/20 07:16:20;;;;;;;9.35;4.93;;;;;;;5.10;100.00;101276.09;4890212;29;20063;-75
2022/10/20 07:18:47;;;;;;;4.57;3.55;;;;;;;5.11;100.00;101268.31;4911767;29;20076;-77
2022/10/20 07:21:18;;;;;;;9.43;5.00;;;;;;;5.16;100.00;101255.44;4915137;29;20064;-77
2022/10/20 07:23:45;;;;;;;8.95;4.72;;;;;;;5.18;100.00;101255.50;4909247;29;20077;-76
2022/10/20 07:26:19;;;;;;;7.15;4.88;;;;;;;5.26;100.00;101257.41;4926696;29;20132;-77
2022/10/20 07:28:51;;;;;;;7.07;4.68;;;;;;;5.30;100.00;101256.63;4925795;29;20059;-76
2022/10/20 07:31:46;;;;;;;9.30;4.68;;;;;;;5.43;100.00;101251.72;4911968;29;20111;-76
2022/10/20 07:34:15;;;;;;;9.05;5.10;;;;;;;5.48;100.00;101247.50;4919885;29;20052;-77
2022/10/20 07:36:44;;;;;;;13.02;5.30;;;;;;;5.54;100.00;101242.44;4910746;29;20050;-76
2022/10/20 07:39:13;;;;;;;8.30;4.93;;;;;;;5.63;100.00;101241.75;4903691;29;20044;-75
2022/10/20 07:41:42;;;;;;;13.68;6.18;;;;;;;5.73;100.00;101248.88;4917695;29;20071;-79
2022/10/20 07:44:09;;;;;;;11.52;5.82;;;;;;;5.83;100.00;101243.88;4927809;29;20134;-75
2022/10/20 07:46:36;;;;;;;7.65;4.88;;;;;;;5.93;100.00;101238.91;4911754;29;20120;-77
2022/10/20 07:49:03;;;;;;;8.13;4.63;;;;;;;6.01;100.00;101249.50;4901868;29;20049;-77
2022/10/20 07:51:31;;;;;;;9.75;5.63;;;;;;;6.10;100.00;101243.56;4913038;29;20045;-77
2022/10/20 07:54:08;;;;;;;8.55;5.45;;;;;;;6.16;100.00;101235.88;4902324;29;20372;-76
2022/10/20 07:56:39;;;;;;;6.43;5.32;;;;;;;6.22;100.00;101230.81;4903418;29;20045;-76
2022/10/20 07:59:07;;;;;;;6.18;5.10;;;;;;;6.27;100.00;101231.78;4908112;29;20043;-76
2022/10/20 08:01:35;;;;;;;10.27;6.10;;;;;;;6.30;100.00;101233.56;4914479;29;20088;-79
2022/10/20 08:04:01;;;;;;;8.60;6.20;;;;;;;6.40;100.00;101226.78;4924429;29;20107;-76
2022/10/20 08:06:28;;;;;;;10.13;5.40;;;;;;;6.49;99.32;101215.66;4920413;29;20048;-76
2022/10/20 08:08:55;;;;;;;10.25;5.65;;;;;;;6.60;99.38;101224.53;4913531;29;20051;-77
2022/10/20 08:11:22;;;;;;;8.68;5.53;;;;;;;6.73;97.65;101221.28;4904486;29;20044;-76
2022/10/20 08:13:48;;;;;;;9.88;4.80;;;;;;;6.78;97.33;101223.97;4929684;29;20419;-77
2022/10/20 08:16:16;;;;;;;9.73;6.57;;;;;;;6.91;97.01;101232.81;4907418;29;20048;-77
2022/10/20 08:18:42;;;;;;;6.82;5.45;;;;;;;6.98;95.33;101221.66;4916513;29;20044;-80
2022/10/20 08:21:16;;;;;;;10.77;6.38;;;;;;;7.04;94.46;101220.84;4911311;29;20135;-76
2022/10/20 08:23:46;;;;;;;7.57;5.95;;;;;;;7.10;95.04;101219.25;4910795;29;20040;-77
2022/10/20 08:26:20;;;;;;;5.68;5.15;;;;;;;7.17;94.20;101217.59;4907422;29;20055;-76
2022/10/20 08:28:47;;;;;;;;;;;;;;;7.20;94.28;101219.38;4933291;29;20044;-77
2022/10/20 08:31:14;;;;;;;14.75;5.70;;;;;;;7.25;94.27;101212.50;4930830;29;19927;-78
2022/10/20 08:33:40;;;;;;;11.38;6.55;;;;;;;7.31;94.11;101216.91;4911770;29;20040;-79
2022/10/20 08:36:10;;;;;;;8.32;6.50;;;;;;;7.34;93.59;101215.22;4927595;29;20051;-76
2022/10/20 08:38:39;;;;;;;8.07;5.50;;;;;;;7.31;92.64;101204.75;4911736;29;20075;-77
2022/10/20 08:41:16;;;;;;;11.25;6.13;;;;;;;7.29;93.21;101199.53;4910424;29;20107;-76
2022/10/20 08:43:42;;;;;;;18.90;7.22;;;;;;;7.32;93.30;101205.63;4917530;29;20123;-77
2022/10/20 08:46:19;;;;;;;11.52;6.35;;;;;;;7.36;92.65;101197.88;4919971;29;20121;-76
2022/10/20 08:48:47;;;;;;;8.55;5.05;;;;;;;7.42;92.89;101184.94;4920326;29;20648;-77
2022/10/20 08:51:23;;;;;;;10.00;6.32;;;;;;;7.50;92.69;101182.44;4912972;29;20068;-77
2022/10/20 08:53:53;;;;;;;12.85;7.25;;;;;;;7.59;92.23;101166.91;4911125;29;20443;-77
2022/10/20 08:56:28;;;;;;;9.57;5.57;;;;;;;7.71;92.07;101179.19;4911933;29;20051;-76
2022/10/20 08:58:55;;;;;;;8.35;5.72;;;;;;;7.83;90.67;101186.25;4928372;29;20048;-77
2022/10/20 09:01:24;;;;;;;7.25;5.20;;;;;;;7.89;90.25;101181.13;4906116;29;20105;-76
2022/10/20 09:03:57;;;;;;;8.02;5.03;;;;;;;7.98;89.70;101175.16;4913515;29;20046;-75
2022/10/20 09:06:24;;;;;;;5.82;5.20;;;;;;;8.14;89.54;101181.38;4911577;29;20398;-75
2022/10/20 09:08:51;;;;;;;8.05;6.18;;;;;;;8.17;88.74;101180.53;4906854;29;20068;-74
2022/10/20 09:11:36;;;;;;;6.95;5.38;;;;;;;8.22;88.93;101174.47;4910843;29;20124;-75
2022/10/20 09:14:03;;;;;;;6.18;5.05;;;;;;;8.31;88.16;101168.47;4904157;29;20040;-78
2022/10/20 09:16:37;;;;;;;8.23;5.65;;;;;;;8.42;88.04;101173.78;4914690;29;20040;-75
2022/10/20 09:19:06;;;;;;;9.93;6.00;;;;;;;8.54;87.39;101162.59;4898170;29;20483;-76
2022/10/20 09:21:38;;;;;;;10.10;5.57;;;;;;;8.70;87.13;101166.22;4903079;29;20060;-76
2022/10/20 09:24:06;;;;;;;6.82;5.60;;;;;;;8.79;85.82;101163.66;4905471;29;20076;-80
2022/10/20 09:26:46;;;;;;;6.65;5.30;;;;;;;8.86;84.64;101159.34;4931014;29;20041;-76
2022/10/20 09:29:20;;;;;;;6.20;5.35;;;;;;;8.89;84.89;101160.25;4907538;29;20119;-76
2022/10/20 09:31:53;;;;;;;7.25;6.30;;;;;;;8.98;84.53;101159.41;4931644;29;20436;-76
2022/10/20 09:34:20;;;;;;;8.73;5.23;;;;;;;9.08;83.19;101162.97;4908968;29;20476;-74
2022/10/20 09:36:48;;;;;;;9.07;5.10;;;;;;;9.13;83.70;101156.03;4914511;29;20056;-77
2022/10/20 09:39:30;;;;;;;9.60;5.72;;;;;;;9.16;83.69;101147.34;4910834;29;20059;-76
2022/10/20 09:42:04;;;;;;;14.40;5.22;;;;;;;9.25;83.37;101150.84;4923719;29;20076;-76
2022/10/20 09:44:37;;;;;;;6.28;4.85;;;;;;;9.35;83.14;101149.16;4900157;29;20052;-77
2022/10/20 09:47:04;;;;;;;6.87;4.40;;;;;;;9.50;83.67;101150.94;4925516;29;20079;-77
2022/10/20 09:49:34;;;;;;;8.02;4.80;;;;;;;9.63;82.04;101140.53;4907059;29;20126;-76
2022/10/20 09:52:04;;;;;;;7.00;5.60;;;;;;;9.72;81.29;101133.59;4929375;29;20059;-80
2022/10/20 09:54:31;;;;;;;6.88;4.45;;;;;;;9.79;80.73;101136.22;4929168;29;20496;-75
2022/10/20 09:57:07;;;;;;;7.40;5.38;;;;;;;9.88;80.64;101124.03;4916005;29;20055;-74
2022/10/20 09:59:39;;;;;;;21.33;6.35;;;;;;;10.02;79.34;101107.50;4913302;29;20090;-77
2022/10/20 10:02:14;;;;;;;11.18;5.00;;;;;;;10.20;78.86;101098.78;4900287;29;20069;-76
2022/10/20 10:04:47;;;;;;;16.70;6.03;;;;;;;10.41;78.44;101106.63;4899685;29;20044;-76
2022/10/20 10:07:26;;;;;;;5.10;4.07;;;;;;;10.59;76.80;101107.50;4899959;29;20055;-77
2022/10/20 10:10:25;;;;;;;8.95;5.47;;;;;;;10.68;76.42;101104.00;4905473;29;20480;-77
2022/10/20 10:12:54;;;;;;;11.52;5.18;;;;;;;10.81;75.83;101105.69;4902855;29;20143;-74
2022/10/20 10:15:30;;;;;;;9.52;5.53;;;;;;;10.93;75.33;101095.19;4916893;29;20071;-74
2022/10/20 10:17:57;;;;;;;5.15;4.45;;;;;;;11.03;74.99;101089.91;4918015;29;20036;-77
2022/10/20 10:20:33;;;;;;;5.65;4.30;;;;;;;11.12;73.81;101086.38;4909116;29;20466;-77
2022/10/20 10:23:32;;;;;;;6.07;4.38;;;;;;;11.12;73.73;101074.16;4915071;29;20832;-80
2022/10/20 10:25:59;;;;;;;7.35;4.45;;;;;;;11.14;74.66;101072.38;4904682;29;20058;-76
2022/10/20 10:28:39;;;;;;;5.55;4.57;;;;;;;11.23;74.08;101068.88;4932203;29;20127;-76
2022/10/20 10:31:25;;;;;;;12.18;4.97;;;;;;;11.22;73.36;101068.00;4897937;29;20051;-74
2022/10/20 10:34:17;;;;;;;5.65;5.03;;;;;;;11.21;74.05;101058.41;4910104;29;20056;-77
2022/10/20 10:36:44;;;;;;;7.03;4.95;;;;;;;11.28;74.27;101063.59;4917192;29;20061;-74
2022/10/20 10:39:14;;;;;;;7.82;5.25;;;;;;;11.31;73.28;101059.19;4917280;29;20040;-74
2022/10/20 10:41:50;;;;;;;6.80;4.80;;;;;;;11.38;73.37;101049.56;4912652;29;20142;-76
2022/10/20 10:44:46;;;;;;;7.55;4.88;;;;;;;11.39;72.64;101039.09;4910199;29;20054;-75
2022/10/20 10:47:47;;;;;;;6.43;5.25;;;;;;;11.38;72.82;101033.81;4935601;29;20046;-77
2022/10/20 10:50:51;;;;;;;7.70;5.22;;;;;;;11.44;72.47;101020.69;4921283;29;20051;-75
2022/10/20 10:53:53;;;;;;;6.50;5.05;;;;;;;11.49;72.44;101016.28;4937435;29;20044;-76
2022/10/20 10:56:32;;;;;;;7.97;4.35;;;;;;;11.58;72.62;101020.59;4920247;29;20036;-76
2022/10/20 10:59:29;;;;;;;9.60;4.90;;;;;;;11.75;71.34;101028.34;4930131;29;20048;-75
2022/10/20 11:02:31;;;;;;;20.58;6.13;;;;;;;11.72;70.65;101010.88;4934627;29;20504;-77
2022/10/20 11:05:20;;;;;;;5.47;4.97;;;;;;;11.81;70.42;100996.81;4916422;29;20052;-76
2022/10/20 11:08:06;;;;;;;9.05;5.43;;;;;;;11.90;70.22;100990.59;4912180;29;20111;-76
2022/10/20 11:10:44;;;;;;;5.22;4.72;;;;;;;12.01;69.74;100987.94;4907900;29;20127;-78
2022/10/20 11:13:31;;;;;;;10.88;5.40;;;;;;;11.96;70.19;100982.72;4912289;29;20543;-76
2022/10/20 11:16:15;;;;;;;7.80;5.18;;;;;;;12.08;70.21;100981.72;4929801;29;20400;-75
2022/10/20 11:19:30;;;;;;;7.75;5.30;;;;;;;12.15;68.89;100987.78;4915639;29;20048;-77
2022/10/20 11:22:26;;;;;;;7.50;4.63;;;;;;;12.06;69.45;100988.75;4931164;29;20131;-76
2022/10/20 11:25:14;;;;;;;9.23;5.97;;;;;;;12.01;70.13;100986.16;4917998;29;20048;-77
2022/10/20 11:27:40;;;;;;;10.27;5.07;;;;;;;12.10;70.26;100972.09;4915727;29;20103;-77
2022/10/20 11:30:19;;;;;;;6.82;5.25;;;;;;;12.09;70.11;100970.34;4907463;29;20049;-78
2022/10/20 11:32:55;;;;;;;7.10;5.85;;;;;;;12.13;70.10;100963.31;4914682;29;20055;-78
2022/10/20 11:35:49;;;;;;;11.05;6.53;;;;;;;12.04;70.18;100975.63;4903128;29;20044;-79
2022/10/20 11:38:31;;;;;;;7.88;5.28;;;;;;;12.12;70.57;100991.31;4912821;29;20131;-77
2022/10/20 11:41:27;;;;;;;8.65;6.43;;;;;;;12.27;70.34;100973.66;4896811;29;20052;-75
2022/10/20 11:44:03;;;;;;;7.03;5.65;;;;;;;12.31;69.89;100971.00;4908844;29;20044;-82
2022/10/20 11:46:42;;;;;;;8.18;6.38;;;;;;;12.31;69.67;100964.88;4896758;29;20048;-77
2022/10/20 11:49:11;;;;;;;6.03;5.30;;;;;;;12.39;69.88;100958.63;4910483;29;20051;-76
2022/10/20 11:52:39;;;;;;;12.18;6.35;;;;;;;12.48;69.72;100939.28;4913260;29;20044;-78